createdAt,value
2022-07-28T00:00:58.604Z,17.00
2022-07-28T00:02:04.801Z,17.00
2022-07-28T00:03:11.089Z,17.00
2022-07-28T00:04:17.424Z,17.00
2022-07-28T00:05:23.700Z,17.00
2022-07-28T00:06:29.839Z,17.00
2022-07-28T00:07:35.983Z,17.00
2022-07-28T00:08:42.121Z,17.00
2022-07-28T00:09:48.265Z,17.00
2022-07-28T00:10:54.482Z,17.00
2022-07-28T00:12:00.621Z,17.00
2022-07-28T00:13:07.119Z,17.00
2022-07-28T00:14:13.752Z,17.00
2022-07-28T00:15:20.428Z,17.00
2022-07-28T00:16:26.636Z,17.00
2022-07-28T00:17:32.804Z,17.00
2022-07-28T00:18:38.951Z,17.00
2022-07-28T00:19:45.087Z,17.00
2022-07-28T00:20:51.312Z,17.00
2022-07-28T00:21:57.522Z,17.00
2022-07-28T00:23:03.675Z,17.00
2022-07-28T00:24:10.376Z,17.00
2022-07-28T00:25:16.807Z,17.00
2022-07-28T00:26:22.956Z,17.00
2022-07-28T00:27:29.101Z,17.00
2022-07-28T00:28:35.244Z,17.00
2022-07-28T00:29:50.510Z,17.00
2022-07-28T00:30:57.329Z,17.00
2022-07-28T00:32:11.056Z,17.00
2022-07-28T00:33:17.289Z,17.00
2022-07-28T00:34:26.721Z,17.00
2022-07-28T00:35:32.991Z,17.00
2022-07-28T00:36:39.577Z,17.00
2022-07-28T00:37:45.720Z,17.00
2022-07-28T00:38:55.330Z,17.00
2022-07-28T00:40:01.939Z,17.00
2022-07-28T00:41:08.087Z,17.00
2022-07-28T00:42:14.223Z,17.00
2022-07-28T00:43:20.362Z,17.00
2022-07-28T00:44:26.500Z,17.00
2022-07-28T00:45:32.888Z,17.00
2022-07-28T00:46:39.076Z,17.00
2022-07-28T00:47:45.221Z,17.00
2022-07-28T00:48:51.460Z,17.00
2022-07-28T00:49:57.668Z,17.00
2022-07-28T00:51:03.815Z,17.00
2022-07-28T00:52:09.957Z,17.00
2022-07-28T00:53:16.101Z,17.00
2022-07-28T00:54:22.248Z,17.00
2022-07-28T00:55:28.468Z,17.00
2022-07-28T00:56:34.610Z,17.00
2022-07-28T00:57:40.753Z,17.00
2022-07-28T00:58:46.901Z,17.00
2022-07-28T00:59:53.084Z,17.00
2022-07-28T01:01:00.901Z,17.00
2022-07-28T01:02:07.178Z,17.00
2022-07-28T01:03:13.474Z,17.00
2022-07-28T01:04:19.651Z,17.00
2022-07-28T01:05:43.141Z,17.00
2022-07-28T01:06:50.373Z,17.00
2022-07-28T01:07:56.694Z,17.00
2022-07-28T01:09:02.843Z,17.00
2022-07-28T01:10:09.073Z,17.00
2022-07-28T01:11:15.228Z,17.00
2022-07-28T01:12:21.369Z,17.00
2022-07-28T01:13:30.044Z,17.00
2022-07-28T01:14:39.101Z,17.00
2022-07-28T01:15:45.576Z,17.00
2022-07-28T01:16:51.733Z,17.00
2022-07-28T01:17:57.889Z,17.00
2022-07-28T01:19:04.034Z,17.00
2022-07-28T01:20:10.261Z,17.00
2022-07-28T01:21:16.408Z,17.00
2022-07-28T01:22:22.557Z,17.00
2022-07-28T01:23:28.697Z,17.00
2022-07-28T01:24:34.851Z,17.00
2022-07-28T01:25:41.081Z,17.00
2022-07-28T01:26:54.471Z,17.00
2022-07-28T01:28:00.614Z,17.00
2022-07-28T01:29:06.759Z,17.00
2022-07-28T01:30:13.132Z,17.00
2022-07-28T01:31:19.359Z,17.00
2022-07-28T01:32:25.538Z,17.00
2022-07-28T01:33:31.698Z,17.00
2022-07-28T01:34:37.837Z,17.00
2022-07-28T01:35:44.061Z,17.00
2022-07-28T01:36:50.227Z,17.00
2022-07-28T01:37:56.379Z,17.00
2022-07-28T01:39:02.523Z,17.00
2022-07-28T01:40:08.750Z,17.00
2022-07-28T01:41:14.891Z,17.00
2022-07-28T01:42:21.071Z,17.00
2022-07-28T01:43:27.219Z,17.00
2022-07-28T01:44:33.362Z,17.00
2022-07-28T01:45:39.741Z,17.00
2022-07-28T01:46:45.955Z,17.00
2022-07-28T01:47:52.122Z,17.00
2022-07-28T01:48:58.383Z,17.00
2022-07-28T01:50:04.672Z,17.00
2022-07-28T01:51:10.821Z,17.00
2022-07-28T01:52:16.981Z,17.00
2022-07-28T01:53:23.131Z,17.00
2022-07-28T01:54:29.301Z,17.00
2022-07-28T01:55:35.532Z,17.00
2022-07-28T01:56:41.681Z,17.00
2022-07-28T01:57:47.886Z,17.00
2022-07-28T01:58:54.072Z,17.00
2022-07-28T02:00:00.481Z,17.00
2022-07-28T02:01:06.649Z,17.00
2022-07-28T02:02:12.796Z,17.00
2022-07-28T02:03:18.943Z,17.00
2022-07-28T02:04:25.088Z,17.00
2022-07-28T02:05:31.498Z,17.00
2022-07-28T02:06:37.701Z,17.00
2022-07-28T02:07:43.848Z,17.00
2022-07-28T02:08:49.994Z,17.00
2022-07-28T02:09:56.154Z,17.00
2022-07-28T02:11:02.307Z,17.00
2022-07-28T02:12:08.571Z,17.00
2022-07-28T02:13:14.735Z,17.00
2022-07-28T02:14:20.891Z,17.00
2022-07-28T02:15:27.290Z,17.00
2022-07-28T02:16:33.434Z,17.00
2022-07-28T02:17:39.580Z,17.00
2022-07-28T02:18:45.734Z,17.00
2022-07-28T02:19:53.084Z,17.00
2022-07-28T02:20:59.314Z,17.00
2022-07-28T02:22:05.465Z,17.00
2022-07-28T02:23:11.610Z,17.00
2022-07-28T02:24:18.001Z,17.00
2022-07-28T02:25:24.295Z,17.00
2022-07-28T02:26:30.441Z,17.00
2022-07-28T02:27:36.594Z,17.00
2022-07-28T02:28:42.951Z,17.00
2022-07-28T02:29:51.165Z,17.00
2022-07-28T02:30:58.291Z,17.00
2022-07-28T02:32:04.556Z,17.00
2022-07-28T02:33:58.690Z,17.00
2022-07-28T02:35:06.694Z,17.00
2022-07-28T02:36:16.167Z,17.00
2022-07-28T02:37:22.496Z,17.00
2022-07-28T02:38:28.753Z,17.00
2022-07-28T02:39:34.905Z,17.00
2022-07-28T02:40:41.211Z,17.00
2022-07-28T02:41:47.361Z,17.00
2022-07-28T02:42:53.513Z,17.00
2022-07-28T02:43:59.662Z,17.00
2022-07-28T02:45:06.860Z,17.00
2022-07-28T02:46:13.057Z,17.00
2022-07-28T02:47:19.257Z,17.00
2022-07-28T02:48:25.409Z,17.00
2022-07-28T02:49:33.268Z,17.00
2022-07-28T02:50:40.085Z,17.00
2022-07-28T02:51:46.229Z,17.00
2022-07-28T02:52:52.377Z,17.00
2022-07-28T02:53:58.523Z,17.00
2022-07-28T02:55:06.889Z,17.00
2022-07-28T02:56:13.038Z,17.00
2022-07-28T02:57:19.184Z,17.00
2022-07-28T02:58:25.330Z,17.00
2022-07-28T02:59:31.482Z,17.00
2022-07-28T03:00:37.916Z,17.00
2022-07-28T03:01:28.724Z,15.38
2022-07-28T03:02:01.510Z,15.38
2022-07-28T03:02:32.106Z,15.38
2022-07-28T03:03:03.242Z,15.38
2022-07-28T03:03:33.097Z,15.38
2022-07-28T03:03:52.238Z,15.38
2022-07-28T03:04:26.232Z,15.38
2022-07-28T03:04:55.689Z,15.38
2022-07-28T03:05:28.124Z,15.38
2022-07-28T03:06:00.133Z,15.38
2022-07-28T03:06:31.239Z,15.27
2022-07-28T03:07:03.326Z,15.27
2022-07-28T03:07:33.073Z,15.27
2022-07-28T03:07:51.924Z,15.27
2022-07-28T03:08:23.208Z,15.27
2022-07-28T03:08:40.338Z,15.38
2022-07-28T03:09:11.231Z,15.38
2022-07-28T03:09:33.528Z,15.38
2022-07-28T03:10:00.975Z,15.27
2022-07-28T03:10:33.458Z,15.27
2022-07-28T03:11:04.014Z,15.27
2022-07-28T03:11:33.070Z,15.27
2022-07-28T03:11:51.909Z,15.27
2022-07-28T03:12:23.232Z,15.27
2022-07-28T03:12:40.351Z,15.27
2022-07-28T03:13:11.927Z,15.27
2022-07-28T03:13:33.030Z,15.27
2022-07-28T03:13:59.201Z,15.27
2022-07-28T03:14:32.037Z,15.27
2022-07-28T03:15:03.532Z,15.27
2022-07-28T03:15:35.153Z,15.27
2022-07-28T03:16:07.202Z,15.27
2022-07-28T03:16:34.106Z,15.27
2022-07-28T03:16:55.703Z,15.27
2022-07-28T03:17:28.099Z,15.27
2022-07-28T03:17:59.926Z,15.27
2022-07-28T03:18:31.200Z,15.27
2022-07-28T03:19:03.202Z,15.27
2022-07-28T03:19:34.135Z,15.27
2022-07-28T03:19:51.271Z,15.27
2022-07-28T03:20:24.284Z,15.27
2022-07-28T03:20:55.226Z,15.27
2022-07-28T03:21:27.260Z,15.27
2022-07-28T03:21:59.245Z,15.27
2022-07-28T03:22:31.209Z,15.27
2022-07-28T03:23:04.020Z,15.27
2022-07-28T03:23:33.028Z,15.27
2022-07-28T03:23:51.939Z,15.27
2022-07-28T03:24:23.221Z,15.27
2022-07-28T03:24:40.341Z,15.27
2022-07-28T03:25:11.318Z,15.27
2022-07-28T03:25:34.269Z,15.27
2022-07-28T03:26:00.840Z,15.22
2022-07-28T03:26:31.220Z,15.22
2022-07-28T03:27:03.189Z,15.22
2022-07-28T03:27:34.820Z,15.22
2022-07-28T03:28:07.204Z,15.22
2022-07-28T03:28:33.021Z,15.22
2022-07-28T03:28:55.188Z,15.22
2022-07-28T03:29:27.940Z,15.22
2022-07-28T03:30:03.408Z,15.22
2022-07-28T03:30:32.502Z,15.22
2022-07-28T03:31:03.230Z,15.22
2022-07-28T03:31:34.052Z,15.22
2022-07-28T03:31:51.227Z,15.22
2022-07-28T03:32:23.184Z,15.22
2022-07-28T03:32:41.150Z,15.22
2022-07-28T03:33:11.189Z,15.22
2022-07-28T03:33:35.319Z,15.22
2022-07-28T03:33:59.191Z,15.22
2022-07-28T03:34:31.225Z,15.22
2022-07-28T03:35:04.193Z,15.11
2022-07-28T03:35:33.025Z,15.11
2022-07-28T03:35:51.325Z,15.11
2022-07-28T03:36:23.232Z,15.11
2022-07-28T03:36:55.439Z,15.11
2022-07-28T03:37:27.246Z,15.11
2022-07-28T03:37:59.233Z,15.11
2022-07-28T03:38:31.273Z,15.11
2022-07-28T03:39:03.273Z,15.00
2022-07-28T03:39:33.057Z,15.00
2022-07-28T03:39:52.401Z,15.00
2022-07-28T03:40:24.137Z,15.00
2022-07-28T03:40:55.219Z,15.00
2022-07-28T03:41:27.238Z,15.00
2022-07-28T03:41:59.199Z,15.00
2022-07-28T03:42:31.242Z,15.00
2022-07-28T03:43:03.220Z,15.00
2022-07-28T03:43:33.055Z,15.00
2022-07-28T03:43:51.921Z,15.00
2022-07-28T03:44:27.744Z,15.00
2022-07-28T03:44:41.928Z,15.00
2022-07-28T03:45:11.581Z,15.00
2022-07-28T03:45:33.277Z,15.00
2022-07-28T03:45:59.377Z,15.00
2022-07-28T03:46:31.314Z,15.00
2022-07-28T03:47:04.236Z,15.00
2022-07-28T03:47:33.055Z,15.00
2022-07-28T03:47:51.315Z,15.00
2022-07-28T03:48:25.805Z,15.00
2022-07-28T03:48:56.243Z,15.00
2022-07-28T03:49:27.900Z,15.00
2022-07-28T03:49:59.886Z,15.00
2022-07-28T03:50:32.095Z,15.00
2022-07-28T03:51:03.211Z,15.00
2022-07-28T03:51:35.088Z,15.00
2022-07-28T03:52:09.229Z,15.00
2022-07-28T03:52:33.947Z,15.00
2022-07-28T03:52:55.243Z,15.00
2022-07-28T03:53:28.264Z,15.00
2022-07-28T03:54:00.369Z,14.88
2022-07-28T03:54:31.239Z,14.88
2022-07-28T03:55:03.326Z,14.88
2022-07-28T03:55:33.847Z,14.88
2022-07-28T03:55:51.382Z,14.88
2022-07-28T03:56:23.928Z,14.88
2022-07-28T03:56:41.228Z,14.88
2022-07-28T03:57:11.220Z,14.88
2022-07-28T03:57:44.188Z,14.88
2022-07-28T03:58:16.219Z,14.88
2022-07-28T03:58:35.941Z,14.88
2022-07-28T03:59:03.244Z,14.88
2022-07-28T03:59:33.067Z,14.88
2022-07-28T03:59:51.550Z,14.88
2022-07-28T04:00:24.401Z,14.88
2022-07-28T04:00:41.518Z,14.88
2022-07-28T04:01:12.064Z,14.88
2022-07-28T04:01:33.158Z,14.88
2022-07-28T04:01:59.356Z,14.88
2022-07-28T04:02:32.229Z,14.88
2022-07-28T04:03:03.193Z,14.88
2022-07-28T04:03:42.566Z,14.88
2022-07-28T04:03:51.284Z,14.88
2022-07-28T04:04:23.192Z,14.88
2022-07-28T04:04:41.216Z,14.88
2022-07-28T04:05:11.314Z,14.88
2022-07-28T04:05:34.585Z,14.88
2022-07-28T04:06:00.248Z,14.88
2022-07-28T04:06:31.193Z,14.88
2022-07-28T04:07:03.917Z,14.88
2022-07-28T04:07:33.043Z,14.88
2022-07-28T04:07:51.249Z,14.88
2022-07-28T04:08:23.213Z,14.88
2022-07-28T04:08:41.182Z,15.00
2022-07-28T04:09:11.960Z,15.00
2022-07-28T04:09:33.464Z,15.00
2022-07-28T04:09:59.219Z,15.00
2022-07-28T04:10:31.401Z,14.88
2022-07-28T04:11:03.330Z,14.88
2022-07-28T04:11:33.041Z,14.88
2022-07-28T04:11:51.996Z,14.88
2022-07-28T04:12:23.926Z,14.88
2022-07-28T04:12:41.991Z,14.88
2022-07-28T04:13:11.327Z,14.88
2022-07-28T04:13:34.343Z,14.88
2022-07-28T04:13:59.184Z,14.88
2022-07-28T04:14:31.191Z,15.00
2022-07-28T04:15:03.500Z,15.00
2022-07-28T04:15:33.045Z,15.00
2022-07-28T04:15:51.275Z,15.00
2022-07-28T04:16:23.988Z,15.00
2022-07-28T04:16:41.074Z,15.00
2022-07-28T04:17:12.131Z,15.00
2022-07-28T04:17:34.075Z,15.00
2022-07-28T04:17:59.237Z,15.00
2022-07-28T04:18:32.873Z,15.00
2022-07-28T04:19:03.678Z,15.00
2022-07-28T04:19:36.756Z,15.00
2022-07-28T04:20:07.354Z,15.00
2022-07-28T04:20:33.040Z,15.00
2022-07-28T04:20:55.302Z,15.00
2022-07-28T04:21:27.190Z,15.00
2022-07-28T04:21:59.910Z,15.11
2022-07-28T04:22:31.182Z,15.11
2022-07-28T04:23:04.718Z,15.11
2022-07-28T04:23:34.149Z,15.11
2022-07-28T04:23:51.212Z,15.11
2022-07-28T04:24:23.184Z,15.11
2022-07-28T04:24:40.361Z,15.11
2022-07-28T04:25:12.136Z,15.11
2022-07-28T04:25:35.247Z,15.11
2022-07-28T04:25:59.301Z,15.11
2022-07-28T04:26:31.234Z,15.11
2022-07-28T04:27:05.115Z,15.11
2022-07-28T04:27:36.283Z,15.11
2022-07-28T04:28:07.309Z,15.11
2022-07-28T04:28:33.048Z,15.11
2022-07-28T04:28:55.988Z,15.11
2022-07-28T04:29:27.704Z,15.11
2022-07-28T04:29:59.877Z,15.11
2022-07-28T04:30:31.767Z,15.11
2022-07-28T04:31:04.870Z,15.11
2022-07-28T04:31:33.048Z,15.11
2022-07-28T04:31:51.246Z,15.11
2022-07-28T04:32:23.406Z,15.11
2022-07-28T04:32:40.909Z,15.11
2022-07-28T04:33:12.881Z,15.11
2022-07-28T04:33:33.111Z,15.11
2022-07-28T04:33:59.333Z,15.11
2022-07-28T04:34:31.910Z,15.11
2022-07-28T04:35:03.261Z,15.22
2022-07-28T04:35:34.054Z,15.22
2022-07-28T04:35:52.067Z,15.22
2022-07-28T04:36:23.177Z,15.22
2022-07-28T04:36:41.043Z,15.22
2022-07-28T04:37:11.179Z,15.22
2022-07-28T04:37:33.845Z,15.22
2022-07-28T04:37:59.885Z,15.22
2022-07-28T04:38:31.187Z,15.22
2022-07-28T04:39:03.908Z,15.22
2022-07-28T04:39:33.085Z,15.27
2022-07-28T04:39:51.549Z,15.27
2022-07-28T04:40:23.393Z,15.27
2022-07-28T04:40:40.909Z,15.27
2022-07-28T04:41:11.983Z,15.27
2022-07-28T04:41:33.959Z,15.27
2022-07-28T04:41:59.309Z,15.27
2022-07-28T04:42:31.211Z,15.27
2022-07-28T04:43:03.262Z,15.38
2022-07-28T04:43:33.086Z,15.38
2022-07-28T04:43:51.176Z,15.38
2022-07-28T04:44:23.879Z,15.38
2022-07-28T04:44:41.403Z,15.38
2022-07-28T04:45:11.458Z,15.38
2022-07-28T04:45:33.078Z,15.38
2022-07-28T04:46:00.138Z,15.50
2022-07-28T04:46:32.164Z,15.50
2022-07-28T04:47:03.872Z,15.50
2022-07-28T04:47:33.060Z,15.50
2022-07-28T04:47:51.220Z,15.50
2022-07-28T04:48:23.326Z,15.50
2022-07-28T04:48:40.470Z,15.50
2022-07-28T04:49:12.943Z,15.50
2022-07-28T04:49:33.090Z,15.50
2022-07-28T04:49:59.174Z,15.50
2022-07-28T04:50:32.082Z,15.50
2022-07-28T04:51:03.252Z,15.61
2022-07-28T04:51:33.040Z,15.61
2022-07-28T04:51:51.199Z,15.61
2022-07-28T04:52:23.908Z,15.61
2022-07-28T04:52:41.030Z,15.61
2022-07-28T04:53:11.245Z,15.61
2022-07-28T04:53:33.046Z,15.61
2022-07-28T04:53:59.198Z,15.61
2022-07-28T04:54:32.670Z,15.61
2022-07-28T04:55:03.360Z,15.61
2022-07-28T04:55:33.055Z,15.61
2022-07-28T04:55:53.526Z,15.72
2022-07-28T04:56:23.210Z,15.72
2022-07-28T04:56:57.797Z,15.72
2022-07-28T04:57:27.211Z,15.72
2022-07-28T04:57:59.936Z,15.72
2022-07-28T04:58:31.190Z,15.72
2022-07-28T04:59:03.921Z,15.72
2022-07-28T04:59:33.058Z,15.72
2022-07-28T04:59:51.217Z,15.72
2022-07-28T05:00:24.271Z,15.72
2022-07-28T05:00:55.247Z,15.72
2022-07-28T05:01:28.913Z,15.72
2022-07-28T05:01:59.184Z,15.72
2022-07-28T05:02:32.233Z,15.72
2022-07-28T05:03:03.865Z,15.72
2022-07-28T05:03:36.284Z,15.72
2022-07-28T05:03:51.192Z,15.72
2022-07-28T05:04:23.928Z,15.72
2022-07-28T05:04:41.145Z,15.72
2022-07-28T05:05:11.338Z,15.72
2022-07-28T05:05:33.747Z,15.72
2022-07-28T05:06:00.104Z,15.72
2022-07-28T05:06:31.186Z,15.72
2022-07-28T05:07:07.665Z,15.72
2022-07-28T05:07:33.051Z,15.72
2022-07-28T05:07:51.206Z,15.72
2022-07-28T05:08:26.017Z,15.72
2022-07-28T05:08:56.041Z,15.72
2022-07-28T05:09:27.164Z,15.72
2022-07-28T05:09:59.160Z,15.72
2022-07-28T05:10:31.240Z,15.61
2022-07-28T05:11:03.247Z,15.61
2022-07-28T05:11:33.040Z,15.61
2022-07-28T05:11:52.696Z,15.61
2022-07-28T05:12:23.230Z,15.72
2022-07-28T05:12:40.321Z,15.72
2022-07-28T05:13:11.224Z,15.72
2022-07-28T05:13:34.286Z,15.72
2022-07-28T05:13:59.930Z,15.72
2022-07-28T05:14:32.128Z,15.72
2022-07-28T05:15:03.573Z,15.72
2022-07-28T05:15:33.453Z,15.72
2022-07-28T05:15:51.317Z,15.72
2022-07-28T05:16:24.712Z,15.72
2022-07-28T05:16:55.223Z,15.72
2022-07-28T05:17:28.982Z,15.72
2022-07-28T05:17:59.154Z,15.72
2022-07-28T05:18:31.959Z,15.72
2022-07-28T05:19:03.183Z,15.72
2022-07-28T05:19:33.082Z,15.72
2022-07-28T05:19:51.843Z,15.72
2022-07-28T05:20:23.312Z,15.72
2022-07-28T05:20:40.510Z,15.72
2022-07-28T05:21:14.261Z,15.72
2022-07-28T05:21:34.457Z,15.72
2022-07-28T05:21:59.969Z,15.72
2022-07-28T05:22:31.243Z,15.72
2022-07-28T05:23:07.417Z,15.72
2022-07-28T05:23:33.084Z,15.72
2022-07-28T05:23:51.194Z,15.72
2022-07-28T05:24:23.177Z,15.72
2022-07-28T05:24:40.962Z,15.72
2022-07-28T05:25:12.253Z,15.72
2022-07-28T05:25:33.088Z,15.72
2022-07-28T05:25:59.261Z,15.72
2022-07-28T05:26:31.141Z,15.72
2022-07-28T05:27:04.004Z,15.72
2022-07-28T05:27:34.438Z,15.72
2022-07-28T05:28:06.651Z,15.77
2022-07-28T05:28:23.846Z,15.77
2022-07-28T05:28:40.978Z,15.77
2022-07-28T05:29:11.939Z,15.77
2022-07-28T05:29:42.506Z,15.77
2022-07-28T05:29:59.177Z,15.77
2022-07-28T05:30:32.257Z,15.77
2022-07-28T05:31:03.196Z,15.88
2022-07-28T05:31:35.887Z,15.88
2022-07-28T05:32:16.401Z,15.88
2022-07-28T05:32:35.436Z,15.88
2022-07-28T05:32:55.266Z,15.88
2022-07-28T05:33:30.158Z,15.88
2022-07-28T05:34:00.650Z,15.88
2022-07-28T05:34:31.165Z,15.77
2022-07-28T05:35:04.882Z,15.77
2022-07-28T05:35:33.038Z,15.77
2022-07-28T05:35:51.250Z,15.77
2022-07-28T05:36:23.866Z,15.77
2022-07-28T05:36:40.985Z,15.77
2022-07-28T05:37:11.191Z,15.77
2022-07-28T05:37:33.041Z,15.88
2022-07-28T05:37:59.866Z,15.88
2022-07-28T05:38:31.210Z,15.88
2022-07-28T05:39:03.832Z,15.88
2022-07-28T05:39:33.050Z,15.88
2022-07-28T05:39:51.216Z,15.88
2022-07-28T05:40:24.456Z,15.88
2022-07-28T05:40:42.114Z,15.88
2022-07-28T05:41:11.828Z,15.88
2022-07-28T05:41:34.038Z,15.88
2022-07-28T05:41:59.148Z,16.00
2022-07-28T05:42:32.779Z,16.00
2022-07-28T05:43:03.207Z,16.00
2022-07-28T05:43:33.835Z,16.00
2022-07-28T05:43:51.169Z,16.00
2022-07-28T05:44:23.162Z,16.00
2022-07-28T05:44:40.334Z,16.00
2022-07-28T05:45:16.526Z,16.11
2022-07-28T05:45:33.888Z,16.11
2022-07-28T05:45:59.291Z,16.11
2022-07-28T05:46:32.664Z,16.11
2022-07-28T05:47:03.228Z,16.11
2022-07-28T05:47:34.940Z,16.11
2022-07-28T05:48:08.162Z,16.22
2022-07-28T05:48:33.110Z,16.22
2022-07-28T05:48:56.077Z,16.22
2022-07-28T05:49:27.203Z,16.22
2022-07-28T05:49:59.827Z,16.22
2022-07-28T05:50:31.272Z,16.22
2022-07-28T05:51:03.207Z,16.22
2022-07-28T05:51:36.044Z,16.22
2022-07-28T05:51:51.135Z,16.22
2022-07-28T05:52:24.893Z,16.22
2022-07-28T05:52:55.151Z,16.27
2022-07-28T05:53:27.207Z,16.27
2022-07-28T05:53:59.126Z,16.27
2022-07-28T05:54:32.057Z,16.27
2022-07-28T05:55:03.246Z,16.27
2022-07-28T05:55:33.483Z,16.38
2022-07-28T05:56:01.362Z,16.38
2022-07-28T05:56:23.184Z,16.38
2022-07-28T05:56:41.071Z,16.38
2022-07-28T05:57:11.159Z,16.38
2022-07-28T05:57:33.091Z,16.38
2022-07-28T05:58:00.758Z,16.38
2022-07-28T05:58:32.154Z,16.38
2022-07-28T05:59:03.144Z,16.38
2022-07-28T05:59:33.078Z,16.38
2022-07-28T05:59:52.018Z,16.38
2022-07-28T06:00:25.209Z,16.38
2022-07-28T06:00:56.235Z,16.38
2022-07-28T06:01:31.011Z,16.38
2022-07-28T06:01:59.160Z,16.38
2022-07-28T06:02:31.260Z,16.38
2022-07-28T06:03:03.855Z,16.38
2022-07-28T06:03:35.914Z,16.38
2022-07-28T06:04:10.014Z,16.38
2022-07-28T06:04:34.481Z,16.38
2022-07-28T06:04:55.977Z,16.38
2022-07-28T06:05:27.309Z,16.38
2022-07-28T06:06:15.287Z,16.38
2022-07-28T06:06:31.151Z,16.38
2022-07-28T06:07:03.177Z,16.38
2022-07-28T06:07:42.289Z,16.38
2022-07-28T06:07:51.171Z,16.38
2022-07-28T06:08:23.845Z,16.38
2022-07-28T06:08:41.499Z,16.38
2022-07-28T06:09:11.109Z,16.38
2022-07-28T06:09:33.872Z,16.38
2022-07-28T06:09:59.248Z,16.38
2022-07-28T06:10:32.084Z,16.38
2022-07-28T06:11:03.120Z,16.38
2022-07-28T06:11:33.847Z,16.38
2022-07-28T06:11:51.501Z,16.38
2022-07-28T06:12:23.134Z,16.38
2022-07-28T06:12:41.835Z,16.38
2022-07-28T06:13:11.152Z,16.50
2022-07-28T06:13:33.079Z,16.50
2022-07-28T06:13:59.807Z,16.50
2022-07-28T06:14:31.414Z,16.50
2022-07-28T06:15:06.458Z,16.50
2022-07-28T06:15:33.039Z,16.50
2022-07-28T06:15:51.273Z,16.61
2022-07-28T06:16:23.617Z,16.61
2022-07-28T06:16:40.420Z,16.72
2022-07-28T06:17:11.943Z,16.72
2022-07-28T06:17:33.084Z,16.72
2022-07-28T06:18:01.043Z,16.77
2022-07-28T06:18:31.150Z,16.77
2022-07-28T06:19:03.205Z,16.77
2022-07-28T06:19:33.047Z,16.88
2022-07-28T06:19:51.129Z,16.88
2022-07-28T06:20:23.984Z,17.00
2022-07-28T06:20:41.667Z,17.00
2022-07-28T06:21:11.154Z,17.11
2022-07-28T06:21:33.109Z,17.11
2022-07-28T06:22:00.019Z,17.22
2022-07-28T06:22:31.109Z,17.22
2022-07-28T06:23:03.842Z,17.22
2022-07-28T06:23:33.042Z,17.22
2022-07-28T06:23:51.162Z,17.27
2022-07-28T06:24:23.186Z,17.27
2022-07-28T06:24:40.256Z,17.27
2022-07-28T06:25:15.263Z,17.38
2022-07-28T06:25:33.037Z,17.38
2022-07-28T06:25:59.234Z,17.38
2022-07-28T06:26:31.185Z,17.50
2022-07-28T06:27:03.219Z,17.50
2022-07-28T06:27:34.043Z,17.50
2022-07-28T06:27:51.146Z,17.50
2022-07-28T06:28:24.812Z,17.50
2022-07-28T06:28:55.109Z,17.50
2022-07-28T06:29:27.853Z,17.50
2022-07-28T06:29:59.163Z,17.50
2022-07-28T06:30:31.482Z,17.61
2022-07-28T06:31:03.130Z,17.61
2022-07-28T06:31:33.127Z,17.61
2022-07-28T06:31:51.985Z,17.72
2022-07-28T06:32:23.116Z,17.72
2022-07-28T06:32:40.231Z,17.72
2022-07-28T06:33:17.175Z,17.72
2022-07-28T06:33:33.080Z,17.72
2022-07-28T06:33:59.146Z,17.77
2022-07-28T06:34:31.104Z,17.77
2022-07-28T06:35:03.256Z,17.77
2022-07-28T06:35:45.269Z,17.77
2022-07-28T06:36:07.185Z,17.77
2022-07-28T06:36:33.083Z,17.88
2022-07-28T06:36:55.145Z,17.88
2022-07-28T06:37:27.113Z,17.88
2022-07-28T06:38:01.932Z,17.88
2022-07-28T06:38:32.634Z,17.88
2022-07-28T06:39:03.872Z,17.88
2022-07-28T06:39:34.042Z,17.88
2022-07-28T06:39:51.132Z,17.88
2022-07-28T06:40:24.005Z,18.00
2022-07-28T06:40:41.661Z,18.00
2022-07-28T06:41:11.101Z,18.00
2022-07-28T06:41:34.879Z,18.00
2022-07-28T06:41:59.124Z,18.11
2022-07-28T06:42:32.634Z,18.11
2022-07-28T06:43:03.156Z,18.11
2022-07-28T06:43:36.806Z,18.11
2022-07-28T06:44:08.510Z,18.22
2022-07-28T06:44:55.033Z,18.22
2022-07-28T06:45:20.879Z,18.22
2022-07-28T06:45:33.926Z,18.22
2022-07-28T06:45:59.176Z,18.22
2022-07-28T06:46:31.232Z,18.22
2022-07-28T06:47:03.219Z,18.11
2022-07-28T06:47:33.143Z,18.22
2022-07-28T06:47:52.031Z,18.22
2022-07-28T06:48:28.734Z,18.22
2022-07-28T06:48:41.460Z,18.22
2022-07-28T06:49:11.399Z,18.22
2022-07-28T06:49:33.225Z,18.22
2022-07-28T06:49:59.126Z,18.27
2022-07-28T06:50:31.290Z,18.27
2022-07-28T06:51:03.165Z,18.38
2022-07-28T06:51:33.052Z,18.38
2022-07-28T06:51:52.004Z,18.38
2022-07-28T06:52:23.895Z,18.38
2022-07-28T06:52:41.801Z,18.38
2022-07-28T06:53:11.289Z,18.50
2022-07-28T06:53:33.653Z,18.50
2022-07-28T06:53:59.104Z,18.50
2022-07-28T06:54:31.838Z,18.61
2022-07-28T06:55:04.165Z,18.61
2022-07-28T06:55:35.864Z,18.61
2022-07-28T06:56:08.001Z,18.61
2022-07-28T06:56:33.035Z,18.61
2022-07-28T06:56:55.136Z,18.61
2022-07-28T06:57:28.115Z,18.61
2022-07-28T06:58:00.750Z,18.50
2022-07-28T06:58:31.163Z,18.50
2022-07-28T06:59:05.981Z,18.50
2022-07-28T06:59:33.038Z,18.61
2022-07-28T06:59:51.118Z,18.61
2022-07-28T07:00:23.416Z,18.72
2022-07-28T07:00:42.770Z,18.72
2022-07-28T07:01:11.205Z,18.77
2022-07-28T07:01:33.264Z,18.77
2022-07-28T07:01:59.164Z,18.77
2022-07-28T07:02:31.082Z,18.88
2022-07-28T07:03:03.809Z,18.88
2022-07-28T07:03:33.087Z,18.88
2022-07-28T07:03:51.200Z,18.88
2022-07-28T07:04:23.840Z,18.88
2022-07-28T07:04:41.400Z,18.88
2022-07-28T07:05:11.237Z,18.88
2022-07-28T07:05:33.053Z,19.00
2022-07-28T07:05:59.590Z,19.00
2022-07-28T07:06:31.121Z,19.11
2022-07-28T07:07:03.113Z,19.11
2022-07-28T07:07:33.049Z,19.22
2022-07-28T07:08:07.914Z,19.22
2022-07-28T07:08:33.073Z,19.22
2022-07-28T07:08:55.924Z,19.22
2022-07-28T07:09:27.079Z,19.11
2022-07-28T07:09:59.103Z,19.11
2022-07-28T07:10:31.246Z,19.11
2022-07-28T07:11:03.086Z,19.11
2022-07-28T07:11:33.033Z,19.11
2022-07-28T07:11:51.870Z,19.00
2022-07-28T07:12:23.120Z,19.00
2022-07-28T07:12:40.640Z,19.00
2022-07-28T07:13:11.933Z,19.00
2022-07-28T07:13:33.742Z,19.00
2022-07-28T07:13:59.094Z,19.00
2022-07-28T07:14:31.304Z,19.11
2022-07-28T07:15:03.378Z,19.11
2022-07-28T07:15:34.916Z,19.11
2022-07-28T07:15:52.170Z,19.11
2022-07-28T07:16:23.775Z,19.22
2022-07-28T07:16:40.949Z,19.22
2022-07-28T07:17:11.081Z,19.27
2022-07-28T07:17:33.033Z,19.27
2022-07-28T07:17:59.077Z,19.38
2022-07-28T07:18:31.769Z,19.38
2022-07-28T07:19:06.823Z,19.38
2022-07-28T07:19:33.936Z,19.38
2022-07-28T07:19:51.834Z,19.38
2022-07-28T07:20:23.190Z,19.50
2022-07-28T07:20:40.229Z,19.50
2022-07-28T07:21:11.128Z,19.61
2022-07-28T07:21:34.585Z,19.61
2022-07-28T07:22:00.036Z,19.72
2022-07-28T07:22:31.090Z,19.72
2022-07-28T07:23:03.098Z,19.72
2022-07-28T07:23:33.030Z,19.72
2022-07-28T07:24:07.165Z,19.72
2022-07-28T07:24:33.929Z,19.72
2022-07-28T07:24:57.171Z,19.72
2022-07-28T07:25:27.914Z,19.72
2022-07-28T07:26:01.160Z,19.72
2022-07-28T07:26:31.108Z,19.72
2022-07-28T07:27:03.072Z,19.72
2022-07-28T07:27:33.631Z,19.72
2022-07-28T07:28:07.945Z,19.77
2022-07-28T07:28:33.023Z,19.77
2022-07-28T07:28:56.021Z,19.77
2022-07-28T07:29:30.652Z,19.77
2022-07-28T07:29:59.102Z,19.77
2022-07-28T07:30:33.142Z,19.88
2022-07-28T07:31:04.072Z,19.88
2022-07-28T07:31:34.012Z,19.88
2022-07-28T07:31:52.928Z,19.88
2022-07-28T07:32:24.971Z,20.00
2022-07-28T07:32:55.078Z,20.00
2022-07-28T07:33:27.917Z,20.00
2022-07-28T07:33:59.105Z,20.00
2022-07-28T07:34:31.060Z,20.00
2022-07-28T07:35:03.141Z,20.11
2022-07-28T07:35:33.045Z,20.11
2022-07-28T07:35:51.986Z,20.11
2022-07-28T07:36:23.086Z,20.11
2022-07-28T07:36:41.982Z,20.11
2022-07-28T07:37:11.115Z,20.11
2022-07-28T07:37:33.034Z,20.11
2022-07-28T07:37:59.933Z,20.11
2022-07-28T07:38:31.076Z,20.00
2022-07-28T07:39:03.090Z,20.00
2022-07-28T07:39:35.975Z,20.00
2022-07-28T07:40:07.449Z,20.00
2022-07-28T07:40:33.073Z,20.00
2022-07-28T07:40:55.999Z,20.11
2022-07-28T07:41:27.083Z,20.11
2022-07-28T07:41:59.903Z,20.11
2022-07-28T07:42:31.099Z,20.11
2022-07-28T07:43:04.868Z,20.22
2022-07-28T07:43:33.038Z,20.22
2022-07-28T07:43:51.478Z,20.22
2022-07-28T07:44:23.123Z,20.22
2022-07-28T07:44:40.204Z,20.22
2022-07-28T07:45:14.905Z,20.22